Latest Weather Observations for Newcastle Nobbys

IDN60801

Issued at 9:53 pm EST Sunday 3 July 2022 (issued every 10 minutes, with the page automatically refreshed every 10 minutes)

About weather observations | Map of weather stations | Latest weather observations for NSW | Other Formats
Station Details ID: 061055 Name: NEWCASTLE NOBBYS SIGNAL STATION AWS Lat: -32.92 Lon: 151.80 Height: 33.0 m
Data from the previous 72 hours. | See also: Recent months at Newcastle Nobbys
Date/Time
EST
Temp
°C
App
Temp
°C
Dew
Point
°C
Rel
Hum
%
Delta-T
°C
Wind Press
QNH
hPa
Press
MSL
hPa
Rain since
9am
mm
Dir  Spd
km/h
Gust
km/h
Spd
kts
Gust
kts
03/09:30pm 18.0 7.3 15.1 83 1.7 SSE 65 87 35 47 - - 19.0
03/09:00pm 17.3 6.8 15.5 89 1.1 SSE 65 89 35 48 - - 19.0
03/08:30pm 16.1 7.0 15.3 95 0.5 SSE 57 78 31 42 - - 18.6
03/08:10pm 16.8 6.3 15.5 92 0.8 SSE 65 83 35 45 - - 17.2
03/08:00pm 16.7 5.7 15.2 91 0.9 SSE 67 82 36 44 - - 16.8
03/07:34pm 16.8 6.8 14.8 88 1.2 SSE 61 80 33 43 - - 16.2
03/07:30pm 17.0 7.0 15.0 88 1.2 SSE 61 74 33 40 - - 16.2
03/07:17pm 17.1 6.2 14.6 85 1.4 SSE 65 83 35 45 - - 16.2
03/07:00pm 17.2 6.9 15.0 87 1.3 SSE 63 80 34 43 - - 16.2
03/06:30pm 17.3 6.9 14.8 85 1.4 SSE 63 78 34 42 - - 16.2
03/06:02pm 16.7 8.0 14.9 89 1.0 SSE 54 74 29 40 - - 16.0
03/06:00pm 16.6 7.6 15.0 90 0.9 SSE 56 67 30 36 - - 16.0
03/05:53pm 16.5 6.5 14.9 90 0.9 SSE 61 82 33 44 - - 16.0
03/05:30pm 16.9 7.6 14.7 87 1.3 SSE 57 74 31 40 - - 15.8
03/05:00pm 17.2 6.0 14.7 85 1.4 SE 67 85 36 46 - - 15.6
03/04:32pm 17.3 8.1 14.4 83 1.7 SE 56 74 30 40 - - 15.6
03/04:30pm 17.3 8.1 14.6 84 1.6 SE 56 69 30 37 - - 15.6
03/04:00pm 17.2 7.8 13.9 81 1.9 SE 56 65 30 35 - - 15.6
03/03:30pm 17.4 8.1 14.7 84 1.6 SE 57 70 31 38 - - 15.6
03/03:00pm 17.3 7.6 14.6 84 1.6 SE 59 74 32 40 - - 15.6
03/02:30pm 17.5 7.7 14.4 82 1.8 SE 59 72 32 39 - - 15.6
03/02:14pm 17.6 8.9 14.9 84 1.6 SE 54 74 29 40 - - 15.6
03/02:00pm 17.4 8.0 14.5 83 1.7 SE 57 72 31 39 - - 15.6
03/01:30pm 17.1 7.9 15.1 88 1.2 SE 57 70 31 38 - - 15.4
03/01:05pm 17.0 7.9 15.2 89 1.0 ESE 57 76 31 41 - - 14.8
03/01:00pm 17.1 7.5 14.9 87 1.3 ESE 59 76 32 41 - - 14.8
03/12:58pm 17.2 8.0 15.0 87 1.3 ESE 57 76 31 41 - - 14.8
03/12:30pm 17.2 7.2 14.8 86 1.4 ESE 61 76 33 41 - - 14.8
03/12:06pm 17.0 7.8 14.6 86 1.4 SE 56 76 30 41 - - 14.6
03/12:00pm 17.0 7.0 14.8 87 1.3 ESE 61 76 33 41 - - 14.4
03/11:30am 16.6 7.5 15.3 92 0.8 SE 57 69 31 37 - - 13.6
03/11:00am 16.7 8.3 15.6 93 0.6 SE 54 67 29 36 - - 12.0
03/10:30am 15.9 7.6 14.9 94 0.6 ESE 52 69 28 37 - - 9.4
03/10:00am 16.9 8.6 15.8 93 0.6 ESE 54 67 29 36 - - 5.0
03/09:30am 16.8 7.9 15.7 93 0.6 ESE 57 72 31 39 - - 3.0
03/09:07am 16.4 9.1 15.6 95 0.5 ESE 48 69 26 37 - - 1.6
03/09:00am 16.4 9.1 15.6 95 0.5 ESE 48 59 26 32 - - 31.4
03/08:30am 16.7 9.4 15.6 93 0.6 ESE 48 57 26 31 - - 26.8
03/08:00am 16.6 8.2 15.5 93 0.6 ESE 54 65 29 35 - - 24.4
03/07:30am 16.6 7.6 15.5 93 0.6 ESE 57 70 31 38 - - 22.6
03/07:28am 16.4 7.3 15.3 93 0.6 ESE 57 70 31 38 - - 22.6
03/07:00am 15.8 9.7 15.2 96 0.3 E 41 59 22 32 - - 20.6
03/06:39am 16.0 9.0 15.2 95 0.5 E 46 67 25 36 - - 15.6
03/06:30am 16.1 8.3 15.3 95 0.5 E 50 63 27 34 - - 14.0
03/06:12am 16.3 9.9 15.3 94 0.6 ESE 43 83 23 45 - - 11.6
03/06:10am 16.6 11.5 15.8 95 0.5 E 37 61 20 33 - - 11.2
03/06:00am 15.9 9.2 14.6 92 0.7 E 43 48 23 26 - - 10.0
03/05:30am 16.7 11.0 15.2 91 0.9 ESE 39 50 21 27 - - 8.2
03/05:05am 16.3 13.7 14.8 91 0.9 E 22 43 12 23 - - 8.0
03/05:00am 16.1 14.4 14.8 92 0.7 E 17 20 9 11 - - 7.8
03/04:30am 15.2 14.4 14.1 93 0.6 WSW 11 13 6 7 - - 7.0
03/04:00am 15.7 15.5 14.6 93 0.6 SSW 9 17 5 9 - - 6.6
03/03:30am 15.7 14.7 14.6 93 0.6 SSW 13 17 7 9 - - 6.6
03/03:00am 15.4 13.5 14.3 93 0.6 SE 17 22 9 12 - - 6.6
03/02:30am 15.5 10.7 14.5 94 0.6 SSE 33 39 18 21 - - 4.8
03/02:20am 15.4 13.9 14.3 93 0.6 S 15 39 8 21 - - 3.8
03/02:00am 15.0 14.2 14.0 94 0.6 WSW 11 17 6 9 - - 2.8
03/01:30am 14.8 13.5 13.7 93 0.6 W 13 15 7 8 - - 2.8
03/01:00am 15.0 14.2 14.0 94 0.6 SW 11 17 6 9 - - 2.8
03/12:30am 15.4 13.2 14.3 93 0.6 SSW 19 24 10 13 - - 2.8
03/12:00am 15.4 15.1 14.3 93 0.6 SW 9 17 5 9 - - 2.6
 
Date/Time
EST
Temp
°C
App
Temp
°C
Dew
Point
°C
Rel
Hum
%
Delta-T
°C
Wind Press
QNH
hPa
Press
MSL
hPa
Rain since
9am
mm
Dir  Spd
km/h
Gust
km/h
Spd
kts
Gust
kts
02/11:30pm 15.4 15.4 14.1 92 0.7 SSW 7 9 4 5 - - 2.4
02/11:00pm 15.2 14.7 13.9 92 0.7 S 9 13 5 7 - - 2.4
02/10:30pm 15.3 14.8 13.7 90 0.9 SSE 9 13 5 7 - - 1.8
02/10:00pm 15.5 14.0 13.2 86 1.3 SE 13 17 7 9 - - 1.0
02/09:30pm 15.4 14.8 13.4 88 1.1 SSE 9 11 5 6 - - 1.0
02/09:00pm 14.8 15.0 13.0 89 1.0 SSW 4 7 2 4 - - 1.0
02/08:30pm 14.4 14.5 12.8 90 0.9 WSW 4 6 2 3 - - 1.0
02/08:00pm 14.4 14.6 13.1 92 0.7 WNW 4 6 2 3 - - 1.0
02/07:30pm 14.4 14.2 13.1 92 0.7 WNW 6 6 3 3 - - 1.0
02/07:00pm 14.4 14.2 13.1 92 0.7 WNW 6 7 3 4 - - 1.0
02/06:30pm 14.5 14.3 13.0 91 0.8 WNW 6 7 3 4 - - 1.0
02/06:00pm 14.5 14.1 12.9 90 0.9 WNW 7 9 4 5 - - 1.0
02/05:30pm 14.6 13.8 12.8 89 1.0 NW 9 11 5 6 - - 1.0
02/05:00pm 14.6 13.4 12.8 89 1.0 NNW 11 13 6 7 - - 1.0
02/04:30pm 14.8 13.7 13.0 89 1.0 NNW 11 13 6 7 - - 1.0
02/04:00pm 14.7 13.6 13.1 90 0.9 NNW 11 15 6 8 - - 1.0
02/03:30pm 15.1 14.5 13.5 90 0.9 N 9 13 5 7 - - 1.0
02/03:00pm 15.0 13.6 13.4 90 0.9 N 13 17 7 9 - - 1.0
02/02:30pm 15.3 14.0 13.7 90 0.9 NW 13 17 7 9 - - 1.0
02/02:00pm 14.8 13.0 13.3 91 0.8 NW 15 19 8 10 - - 1.0
02/01:30pm 15.0 12.5 13.5 91 0.8 NW 19 22 10 12 - - 1.0
02/01:00pm 15.3 12.9 13.8 91 0.8 NW 19 20 10 11 - - 1.0
02/12:30pm 15.8 14.8 14.7 93 0.6 WNW 13 17 7 9 - - 1.0
02/12:00pm 15.6 14.7 14.8 95 0.5 WNW 13 17 7 9 - - 1.0
02/11:30am 13.6 11.6 12.8 95 0.4 NW 15 24 8 13 - - 1.0
02/11:00am 14.6 14.7 14.0 96 0.3 WSW 6 11 3 6 - - 0.8
02/10:30am 14.0 13.0 13.4 96 0.3 WSW 11 15 6 8 - - 0.2
02/10:00am 13.8 12.7 13.2 96 0.3 W 11 17 6 9 - - 0.2
02/09:30am 13.3 10.9 12.5 95 0.4 WNW 17 20 9 11 - - 0.2
02/09:00am 13.4 12.1 12.6 95 0.4 W 11 17 6 9 - - 6.8
02/08:30am 13.1 12.5 12.3 95 0.4 W 7 11 4 6 - - 6.8
02/08:00am 12.8 11.3 12.0 95 0.4 WSW 11 15 6 8 - - 6.6
02/07:30am 12.7 11.2 11.9 95 0.4 WNW 11 15 6 8 - - 6.4
02/07:00am 12.7 11.9 11.8 94 0.5 WSW 7 15 4 8 - - 6.2
02/06:30am 12.5 11.3 11.7 95 0.4 WSW 9 17 5 9 - - 6.0
02/06:00am 12.4 10.4 11.6 95 0.4 WNW 13 17 7 9 - - 6.0
02/05:30am 12.5 10.5 11.6 94 0.5 WNW 13 17 7 9 - - 6.0
02/05:00am 12.4 10.8 11.5 94 0.5 WNW 11 15 6 8 - - 6.0
02/04:30am 12.6 11.0 11.5 93 0.6 WNW 11 15 6 8 - - 6.0
02/04:00am 12.9 10.9 11.6 92 0.7 SW 13 20 7 11 - - 5.8
02/03:30am 13.0 10.4 11.9 93 0.6 SW 17 26 9 14 - - 5.8
02/03:00am 13.0 11.1 11.9 93 0.6 SW 13 24 7 13 - - 5.6
02/02:30am 12.8 10.5 11.7 93 0.6 SW 15 24 8 13 - - 5.2
02/02:00am 12.9 11.4 12.0 94 0.5 WSW 11 17 6 9 - - 4.8
02/01:30am 12.9 10.6 11.8 93 0.6 WSW 15 20 8 11 - - 4.6
02/01:00am 13.0 11.0 11.6 91 0.7 SW 13 22 7 12 - - 4.4
02/12:30am 12.7 11.4 11.3 91 0.7 WSW 9 13 5 7 - - 4.4
02/12:00am 12.9 11.3 11.6 92 0.7 WSW 11 15 6 8 - - 4.4
 
Date/Time
EST
Temp
°C
App
Temp
°C
Dew
Point
°C
Rel
Hum
%
Delta-T
°C
Wind Press
QNH
hPa
Press
MSL
hPa
Rain since
9am
mm
Dir  Spd
km/h
Gust
km/h
Spd
kts
Gust
kts
01/11:30pm 12.5 11.6 11.2 92 0.7 WNW 7 13 4 7 - - 4.4
01/11:00pm 12.9 11.7 11.5 91 0.7 WSW 9 13 5 7 - - 4.2
01/10:30pm 12.8 11.5 11.4 91 0.7 WSW 9 15 5 8 - - 4.2
01/10:00pm 12.6 10.2 11.3 92 0.7 SW 15 24 8 13 - - 4.2
01/09:30pm 12.6 10.2 11.3 92 0.7 SW 15 22 8 12 - - 4.2
01/09:00pm 12.7 11.5 11.6 93 0.6 SW 9 17 5 9 - - 4.2
01/08:30pm 12.6 11.0 11.5 93 0.6 SW 11 17 6 9 - - 4.2
01/08:00pm 12.6 10.2 11.3 92 0.7 SSW 15 26 8 14 - - 4.0
01/07:30pm 12.5 10.7 10.9 90 0.8 SW 11 19 6 10 - - 3.6
01/07:00pm 12.7 9.8 10.9 89 0.9 SW 17 22 9 12 - - 3.6
01/06:30pm 12.8 9.9 11.0 89 0.9 SW 17 24 9 13 - - 3.6
01/06:00pm 12.8 9.9 10.9 88 1.0 SW 17 26 9 14 - - 3.6
01/05:30pm 12.7 9.7 10.8 88 1.0 SW 17 26 9 14 - - 3.6
01/05:00pm 12.8 9.9 10.9 88 1.0 SW 17 28 9 15 - - 3.6
01/04:30pm 13.1 9.9 11.2 88 1.0 SSW 19 28 10 15 - - 3.4
01/04:00pm 13.2 9.3 10.9 86 1.2 SSW 22 35 12 19 - - 3.4
01/03:30pm 13.4 10.0 11.3 87 1.1 SW 20 33 11 18 - - 3.4
01/03:00pm 13.5 10.7 11.4 87 1.1 SW 17 24 9 13 - - 3.4
01/02:30pm 13.6 10.5 11.5 87 1.1 SSW 19 32 10 17 - - 3.4
01/02:00pm 13.7 11.0 11.6 87 1.1 SW 17 24 9 13 - - 3.4
01/01:30pm 13.5 11.6 11.7 89 1.0 SW 13 24 7 13 - - 3.4
01/01:00pm 13.2 10.6 11.9 92 0.7 SW 17 24 9 13 - - 3.4
01/12:30pm 13.5 11.3 12.1 91 0.8 SW 15 24 8 13 - - 3.4
01/12:00pm 14.7 11.9 11.5 81 1.7 SW 17 26 9 14 - - 0.6
01/11:30am 14.9 9.4 11.7 81 1.7 S 32 37 17 20 - - 0.4
01/11:00am 15.1 8.9 11.3 78 2.0 S 35 43 19 23 - - 0.2
01/10:30am 15.3 8.5 12.1 81 1.7 SSE 39 44 21 24 - - 0.2
01/10:00am 15.1 8.9 12.6 85 1.4 SSE 37 43 20 23 - - 0.2
01/09:30am 14.9 7.4 12.0 83 1.6 SSE 43 48 23 26 - - 0.2
01/09:00am 15.2 8.1 12.3 83 1.6 S 41 50 22 27 - - 0.0
01/08:30am 14.2 10.4 12.4 89 1.0 SSW 24 35 13 19 - - 0.0
01/08:00am 13.5 10.1 11.2 86 1.2 SW 20 35 11 19 - - 0.0
01/07:30am 13.9 10.5 11.4 85 1.3 SW 20 32 11 17 - - 0.0
01/07:00am 13.5 10.9 10.7 83 1.5 SW 15 28 8 15 - - 0.0
01/06:30am 13.7 11.2 10.9 83 1.5 SW 15 26 8 14 - - 0.0
01/06:00am 13.7 10.1 10.5 81 1.7 SW 20 32 11 17 - - 0.0
01/05:30am 13.9 10.9 10.5 80 1.8 SW 17 28 9 15 - - 0.0
01/05:00am 13.7 11.7 10.3 80 1.8 SW 11 19 6 10 - - 0.0
01/04:30am 13.8 12.1 10.0 78 2.0 WSW 9 20 5 11 - - 0.0
01/04:00am 13.8 11.7 9.6 76 2.2 SW 11 20 6 11 - - 0.0
01/03:30am 13.8 11.5 9.0 73 2.4 SW 11 19 6 10 - - 0.0
01/03:00am 14.0 11.7 9.0 72 2.5 SW 11 19 6 10 - - 0.0
01/02:30am 14.1 12.2 8.9 71 2.6 SW 9 13 5 7 - - 0.0
01/02:00am 14.4 11.7 9.0 70 2.7 SW 13 17 7 9 - - 0.0
01/01:30am 14.5 11.3 8.5 67 3.0 SW 15 19 8 10 - - 0.0
01/01:00am 14.5 11.8 7.5 63 3.5 SW 11 20 6 11 - - 0.0
01/12:30am 14.7 12.5 8.0 64 3.3 SW 9 15 5 8 - - 0.0
01/12:00am 14.8 12.3 8.1 64 3.4 WSW 11 13 6 7 - - 0.0
 
Date/Time
EST
Temp
°C
App
Temp
°C
Dew
Point
°C
Rel
Hum
%
Delta-T
°C
Wind Press
QNH
hPa
Press
MSL
hPa
Rain since
9am
mm
Dir  Spd
km/h
Gust
km/h
Spd
kts
Gust
kts
30/11:30pm 14.6 11.9 7.4 62 3.6 WSW 11 13 6 7 - - 0.0
30/11:00pm 14.6 12.0 7.6 63 3.5 WSW 11 15 6 8 - - 0.0
30/10:30pm 14.7 12.4 7.5 62 3.6 WSW 9 11 5 6 - - 0.0
30/10:00pm 14.7 12.5 8.0 64 3.3 WSW 9 11 5 6 - - 0.0

Other formats

Comma delimited format used in spreadsheet applications
http://www.bom.gov.au/fwo/IDN60801/IDN60801.94774.axf

JavaScript Object Notation format (JSON) in row-major order
http://www.bom.gov.au/fwo/IDN60801/IDN60801.94774.json

Data quality

Most of these data are generated automatically and are frequently updated. Quality checks on data are not normally performed. It is possible for incorrect values to appear. Refer to information at About Latest Weather Observations and please check the disclaimer before using these data.